Time;durP1;ratioP1;P1;durP2;ratioP2;P2;SDS_P1;SDS_P2;PMS_P1;PMS_P2;Temp;Humidity;BMP_temperature;BMP_pressure;BME280_temperature;BME280_humidity;BME280_pressure;Samples;Min_cycle;Max_cycle;Signal;HPM_P1;HPM_P2
2022/05/30 00:01:13;;;;;;;4.03;2.70;;;;;;;12.08;76.38;98717.28;4391787;32;34994;-80
2022/05/30 00:03:42;;;;;;;6.62;2.85;;;;;;;12.00;77.45;98711.44;4378354;32;34469;-70
2022/05/30 00:06:15;;;;;;;5.60;2.83;;;;;;;11.78;78.68;98711.09;4380084;32;33889;-79
2022/05/30 00:08:43;;;;;;;4.50;2.90;;;;;;;12.03;78.25;98711.31;4366768;32;33999;-70
2022/05/30 00:11:13;;;;;;;4.00;3.00;;;;;;;12.84;74.69;98707.31;4393306;32;35070;-69
2022/05/30 00:13:42;;;;;;;5.65;3.00;;;;;;;12.67;75.02;98713.91;4378867;32;33806;-69
2022/05/30 00:16:16;;;;;;;4.00;2.92;;;;;;;12.80;75.36;98703.94;4393409;32;33425;-73
2022/05/30 00:18:44;;;;;;;4.90;3.12;;;;;;;12.40;76.94;98706.84;4379091;32;33994;-69
2022/05/30 00:21:18;;;;;;;5.65;3.12;;;;;;;12.21;78.20;98704.78;4378993;32;35944;-69
2022/05/30 00:23:46;;;;;;;4.20;2.70;;;;;;;12.20;78.97;98692.59;4378403;32;34921;-69
2022/05/30 00:26:15;;;;;;;4.35;3.12;;;;;;;12.03;79.54;98689.59;4379026;32;33522;-69
2022/05/30 00:28:43;;;;;;;4.78;3.17;;;;;;;12.49;77.83;98683.94;4378941;32;33782;-69
2022/05/30 00:31:13;;;;;;;4.53;3.25;;;;;;;12.33;77.16;98683.53;4392343;32;34942;-69
2022/05/30 00:33:43;;;;;;;5.07;2.83;;;;;;;12.29;77.45;98681.91;4378379;32;34327;-69
2022/05/30 00:36:11;;;;;;;7.20;3.17;;;;;;;12.24;77.96;98681.16;4379885;32;33392;-70
2022/05/30 00:38:39;;;;;;;3.87;2.62;;;;;;;12.19;78.34;98675.22;4363747;32;34067;-70
2022/05/30 00:41:07;;;;;;;5.95;3.20;;;;;;;12.82;76.39;98672.53;4378290;32;35965;-70
2022/05/30 00:43:38;;;;;;;6.65;3.25;;;;;;;11.80;80.05;98672.75;4388444;32;34440;-69
2022/05/30 00:46:12;;;;;;;6.35;3.42;;;;;;;11.82;80.93;98670.97;4376412;32;34274;-69
2022/05/30 00:49:03;;;;;;;4.37;3.40;;;;;;;11.83;80.23;98657.03;4376371;32;34010;-69
2022/05/30 00:51:36;;;;;;;5.37;3.45;;;;;;;11.69;81.15;98657.41;4389249;32;34962;-69
2022/05/30 00:54:07;;;;;;;7.43;3.45;;;;;;;11.69;80.37;98657.41;4389254;32;35295;-69
2022/05/30 00:56:48;;;;;;;5.00;3.40;;;;;;;11.80;80.22;98653.66;4377098;32;33406;-70
2022/05/30 00:59:15;;;;;;;5.75;3.33;;;;;;;12.74;76.57;98661.44;4378468;32;34007;-70
2022/05/30 01:01:44;;;;;;;5.78;3.37;;;;;;;12.99;74.68;98659.81;4388571;32;35017;-75
2022/05/30 01:07:04;;;;;;;5.00;3.12;;;;;;;12.30;78.38;98654.03;4375229;32;34463;-69
2022/05/30 01:09:34;;;;;;;6.55;2.83;;;;;;;12.78;76.09;98656.09;4376931;32;34149;-69
2022/05/30 01:12:06;;;;;;;5.25;2.87;;;;;;;13.12;74.05;98654.19;4376134;32;34383;-69
2022/05/30 01:14:36;;;;;;;4.97;3.53;;;;;;;12.72;76.25;98653.66;4389166;32;35192;-69
2022/05/30 01:17:09;;;;;;;5.35;3.15;;;;;;;13.06;74.79;98647.41;4388405;32;33350;-69
2022/05/30 01:19:52;;;;;;;4.00;2.80;;;;;;;13.27;72.09;98638.84;4389328;32;34051;-69
2022/05/30 01:22:46;;;;;;;4.87;3.08;;;;;;;12.27;76.06;98636.72;4376497;32;35029;-69
2022/05/30 01:25:27;;;;;;;5.05;2.80;;;;;;;12.26;76.67;98645.44;4377978;32;34459;-69
2022/05/30 01:28:09;;;;;;;5.90;2.80;;;;;;;12.18;77.12;98644.81;4375020;32;33578;-69
2022/05/30 01:30:40;;;;;;;6.55;3.00;;;;;;;12.53;76.26;98627.28;4377885;32;33987;-69
2022/05/30 01:33:08;;;;;;;4.72;2.78;;;;;;;12.32;77.71;98629.59;4375476;32;37143;-70
2022/05/30 01:35:36;;;;;;;4.93;3.12;;;;;;;13.06;75.01;98626.50;4377588;32;34164;-69
2022/05/30 01:38:04;;;;;;;6.35;3.30;;;;;;;12.46;77.43;98625.75;4379814;32;32836;-69
2022/05/30 01:40:33;;;;;;;4.10;3.15;;;;;;;12.51;78.02;98626.44;4391339;32;33685;-70
2022/05/30 01:43:01;;;;;;;5.25;3.28;;;;;;;13.22;73.97;98621.63;4390747;32;35845;-71
2022/05/30 01:45:29;;;;;;;5.28;2.90;;;;;;;12.44;76.14;98627.53;4392583;32;35196;-69
2022/05/30 01:47:57;;;;;;;6.87;3.08;;;;;;;12.23;75.12;98632.50;4390644;32;33481;-69
2022/05/30 01:50:27;;;;;;;3.42;2.65;;;;;;;12.96;73.08;98630.31;4391661;32;34812;-69
2022/05/30 01:52:55;;;;;;;6.50;3.45;;;;;;;12.40;73.75;98633.75;4377980;32;34296;-79
2022/05/30 01:55:25;;;;;;;4.32;2.92;;;;;;;12.66;72.54;98623.38;4392471;32;34521;-69
2022/05/30 01:57:53;;;;;;;9.32;3.00;;;;;;;12.89;72.49;98620.03;4391872;32;33516;-69
2022/05/30 02:00:23;;;;;;;6.50;4.37;;;;;;;12.33;73.54;98620.87;4391715;32;34041;-69
2022/05/30 02:02:52;;;;;;;4.40;2.80;;;;;;;12.23;74.57;98623.78;4390139;32;35930;-69
2022/05/30 02:05:20;;;;;;;6.05;2.50;;;;;;;12.34;72.64;98629.56;4392370;32;34439;-69
2022/05/30 02:07:48;;;;;;;3.20;2.42;;;;;;;12.99;71.01;98631.06;4377882;32;33308;-69
2022/05/30 02:10:17;;;;;;;5.12;3.17;;;;;;;12.96;71.55;98636.37;4392480;32;34850;-69
2022/05/30 02:12:45;;;;;;;5.30;3.17;;;;;;;13.02;69.36;98630.09;4391453;32;35126;-69
2022/05/30 02:15:13;;;;;;;3.65;2.70;;;;;;;13.12;70.21;98631.50;4394537;32;34544;-70
2022/05/30 02:17:42;;;;;;;3.92;2.78;;;;;;;13.24;69.95;98632.88;4393475;32;33424;-70
2022/05/30 02:20:10;;;;;;;6.45;3.50;;;;;;;12.78;72.54;98636.97;4379993;32;34838;-70
2022/05/30 02:22:38;;;;;;;4.87;3.20;;;;;;;13.38;70.66;98638.53;4378690;32;33588;-76
2022/05/30 02:25:07;;;;;;;5.90;3.47;;;;;;;13.14;72.23;98637.53;4379936;32;33614;-69
2022/05/30 02:27:34;;;;;;;5.03;3.20;;;;;;;12.88;72.73;98638.38;4379391;32;31877;-69
2022/05/30 02:30:03;;;;;;;8.88;3.50;;;;;;;12.33;74.55;98636.56;4394511;32;34055;-70
2022/05/30 02:32:31;;;;;;;10.18;3.53;;;;;;;12.41;74.20;98638.06;4393585;32;35932;-69
2022/05/30 02:37:46;;;;;;;4.00;3.08;;;;;;;13.30;72.82;98643.13;4392526;32;35123;-70
2022/05/30 02:40:17;;;;;;;3.30;2.60;;;;;;;13.81;70.08;98639.66;4394199;32;34648;-70
2022/05/30 02:42:47;;;;;;;4.57;3.00;;;;;;;12.43;76.32;98651.94;4393509;32;35270;-70
2022/05/30 02:45:16;;;;;;;6.12;3.35;;;;;;;13.00;74.26;98650.19;4394350;32;34347;-73
2022/05/30 02:47:43;;;;;;;5.95;3.50;;;;;;;12.42;76.36;98658.03;4379202;32;32740;-70
2022/05/30 02:50:11;;;;;;;4.00;3.12;;;;;;;13.06;74.45;98653.47;4394418;32;34819;-69
2022/05/30 02:52:40;;;;;;;4.32;2.87;;;;;;;13.91;70.26;98660.28;4380185;32;35926;-80
2022/05/30 02:55:10;;;;;;;8.48;3.33;;;;;;;14.05;68.73;98671.12;4394109;32;33078;-69
2022/05/30 02:57:38;;;;;;;5.62;3.20;;;;;;;13.53;71.14;98672.91;4391811;32;33448;-69
2022/05/30 03:00:07;;;;;;;6.95;3.20;;;;;;;12.56;74.90;98679.38;4393128;32;32946;-70
2022/05/30 03:02:37;;;;;;;6.53;4.20;;;;;;;12.29;76.22;98674.06;4393565;32;35783;-69
2022/05/30 03:05:05;;;;;;;4.65;3.25;;;;;;;12.64;73.16;98676.56;4394011;32;34332;-70
2022/05/30 03:07:33;;;;;;;6.47;3.10;;;;;;;12.74;73.01;98680.63;4378525;32;33477;-68
2022/05/30 03:10:07;;;;;;;4.75;3.00;;;;;;;12.35;75.34;98685.22;4393173;32;34010;-80
2022/05/30 03:12:43;;;;;;;7.25;3.83;;;;;;;12.23;76.49;98679.47;4392424;32;35016;-70
2022/05/30 03:15:14;;;;;;;6.05;3.75;;;;;;;12.19;77.57;98680.44;4380603;32;33982;-69
2022/05/30 03:17:45;;;;;;;7.15;3.70;;;;;;;12.89;73.83;98680.13;4393214;32;32992;-69
2022/05/30 03:20:16;;;;;;;6.37;3.65;;;;;;;12.80;73.64;98682.19;4393553;32;33820;-75
2022/05/30 03:22:48;;;;;;;6.55;3.75;;;;;;;12.77;74.58;98682.25;4392716;32;34373;-69
2022/05/30 03:25:18;;;;;;;7.05;4.00;;;;;;;12.82;74.24;98696.91;4379728;32;35085;-71
2022/05/30 03:27:51;;;;;;;5.95;4.03;;;;;;;12.88;73.00;98695.84;4379189;32;33216;-69
2022/05/30 03:30:20;;;;;;;6.62;3.87;;;;;;;13.25;72.29;98698.19;4379250;32;34125;-69
2022/05/30 03:32:49;;;;;;;10.70;4.03;;;;;;;13.69;69.26;98695.03;4392107;32;35262;-69
2022/05/30 03:35:18;;;;;;;7.40;4.18;;;;;;;12.78;72.42;98695.28;4393547;32;33331;-69
2022/05/30 03:37:47;;;;;;;8.32;4.15;;;;;;;13.26;70.65;98688.59;4391753;32;33673;-70
2022/05/30 03:40:17;;;;;;;6.68;3.85;;;;;;;13.45;70.58;98684.50;4393853;32;33913;-70
2022/05/30 03:42:58;;;;;;;9.27;4.30;;;;;;;13.96;68.87;98688.00;4392804;32;36097;-78
2022/05/30 03:45:26;;;;;;;6.75;3.83;;;;;;;13.82;68.42;98685.88;4378964;32;34345;-80
2022/05/30 03:47:54;;;;;;;7.50;3.90;;;;;;;13.35;71.18;98685.69;4387334;32;34220;-80
2022/05/30 03:50:24;;;;;;;6.03;4.10;;;;;;;13.03;73.23;98689.31;4392378;32;34037;-81
2022/05/30 03:53:05;;;;;;;7.12;4.10;;;;;;;13.88;70.44;98695.25;4392704;32;35010;-75
2022/05/30 03:55:36;;;;;;;9.57;4.65;;;;;;;12.70;74.53;98687.66;4393793;32;34566;-76
2022/05/30 03:58:05;;;;;;;7.80;4.15;;;;;;;13.30;73.30;98691.94;4392801;32;33523;-75
2022/05/30 04:00:34;;;;;;;6.90;4.80;;;;;;;13.91;70.87;98694.31;4379114;32;33810;-69
2022/05/30 04:03:03;;;;;;;7.32;4.65;;;;;;;14.26;68.76;98694.81;4391608;32;35042;-70
2022/05/30 04:05:31;;;;;;;6.45;4.15;;;;;;;13.64;71.47;98702.19;4379550;32;33894;-70
2022/05/30 04:07:59;;;;;;;8.02;3.90;;;;;;;13.16;74.15;98695.84;4391211;32;33456;-81
2022/05/30 04:10:28;;;;;;;5.87;3.35;;;;;;;14.15;68.43;98687.34;4392521;32;34088;-71
2022/05/30 04:13:02;;;;;;;8.30;3.90;;;;;;;13.88;69.44;98692.66;4392319;32;33478;-71
2022/05/30 04:15:36;;;;;;;6.40;3.53;;;;;;;13.48;72.03;98688.75;4393342;32;33137;-71
2022/05/30 04:18:06;;;;;;;6.18;3.42;;;;;;;13.67;71.82;98689.00;4390656;32;33963;-81
2022/05/30 04:20:34;;;;;;;5.37;3.30;;;;;;;13.72;71.76;98697.53;4380145;32;34857;-82
2022/05/30 04:23:03;;;;;;;5.00;3.25;;;;;;;13.89;70.55;98701.34;4377873;32;33650;-71
2022/05/30 04:25:32;;;;;;;5.03;3.33;;;;;;;14.05;68.99;98694.69;4391402;32;34408;-81
2022/05/30 04:28:01;;;;;;;5.22;2.83;;;;;;;14.09;69.94;98713.75;4378978;32;33519;-80
2022/05/30 04:30:31;;;;;;;8.55;4.75;;;;;;;14.31;68.10;98698.13;4393236;32;33517;-70
2022/05/30 04:32:59;;;;;;;6.68;4.22;;;;;;;14.74;65.42;98693.94;4391639;32;34937;-81
2022/05/30 04:35:27;;;;;;;7.03;3.95;;;;;;;14.44;66.90;98699.41;4390892;32;35324;-81
2022/05/30 04:37:55;;;;;;;7.53;3.08;;;;;;;14.39;66.17;98707.41;4381927;32;33438;-71
2022/05/30 04:40:23;;;;;;;7.93;3.35;;;;;;;14.31;66.53;98708.59;4393175;32;33943;-71
2022/05/30 04:43:05;;;;;;;4.55;2.97;;;;;;;14.08;68.31;98717.28;4380240;32;35186;-70
2022/05/30 04:45:42;;;;;;;6.35;2.67;;;;;;;14.11;66.85;98720.63;4391912;32;33083;-81
2022/05/30 04:48:12;;;;;;;7.75;3.30;;;;;;;14.29;66.43;98710.41;4379725;32;34418;-75
2022/05/30 04:50:40;;;;;;;5.40;2.90;;;;;;;15.03;63.80;98718.19;4379497;32;33954;-69
2022/05/30 04:53:09;;;;;;;4.00;2.90;;;;;;;14.81;64.40;98718.13;4392173;32;35070;-71
2022/05/30 04:55:40;;;;;;;5.82;3.03;;;;;;;14.68;66.68;98726.50;4393245;32;33780;-69
2022/05/30 04:58:14;;;;;;;6.43;4.12;;;;;;;14.54;67.93;98724.34;4392456;32;33586;-70
2022/05/30 05:00:44;;;;;;;4.93;3.10;;;;;;;14.77;67.11;98712.16;4393218;32;34597;-69
2022/05/30 05:03:11;;;;;;;4.75;2.97;;;;;;;15.02;66.84;98719.97;4392305;32;35065;-70
2022/05/30 05:05:40;;;;;;;5.50;2.60;;;;;;;14.44;68.34;98730.81;4392286;32;34543;-81
2022/05/30 05:08:15;;;;;;;5.47;3.45;;;;;;;14.94;67.97;98743.81;4392216;32;34287;-71
2022/05/30 05:11:03;;;;;;;7.70;4.13;;;;;;;15.72;63.94;98744.25;4379497;32;33247;-79
2022/05/30 05:13:34;;;;;;;7.22;3.35;;;;;;;15.67;63.94;98736.59;4392253;32;35675;-70
2022/05/30 05:16:10;;;;;;;5.87;3.22;;;;;;;15.66;63.89;98745.38;4392731;32;33108;-71
2022/05/30 05:18:39;;;;;;;5.57;3.25;;;;;;;15.55;65.07;98737.09;4387282;32;33731;-69
2022/05/30 05:21:07;;;;;;;6.43;2.95;;;;;;;15.43;64.54;98748.09;4392050;32;33908;-70
2022/05/30 05:23:35;;;;;;;5.87;2.87;;;;;;;15.49;63.27;98742.56;4378370;32;34998;-70
2022/05/30 05:26:07;;;;;;;4.47;2.92;;;;;;;15.48;64.30;98752.22;4392930;32;34374;-69
2022/05/30 05:28:36;;;;;;;4.80;3.17;;;;;;;15.03;65.29;98753.09;4378505;32;33438;-69
2022/05/30 05:31:06;;;;;;;6.53;3.15;;;;;;;15.77;62.71;98752.84;4392346;32;33952;-70
2022/05/30 05:33:35;;;;;;;4.22;2.97;;;;;;;15.81;63.35;98758.81;4392016;32;35003;-69
2022/05/30 05:36:04;;;;;;;4.20;2.80;;;;;;;15.59;64.00;98762.28;4378395;32;33612;-70
2022/05/30 05:38:32;;;;;;;7.03;3.33;;;;;;;16.22;61.50;98758.84;4389004;32;33401;-69
2022/05/30 05:41:01;;;;;;;6.53;2.75;;;;;;;16.48;61.17;98776.97;4392806;32;33876;-70
2022/05/30 05:43:29;;;;;;;5.90;2.70;;;;;;;16.35;61.92;98770.53;4392018;32;35015;-69
2022/05/30 05:45:57;;;;;;;4.22;2.87;;;;;;;15.53;65.10;98773.06;4392815;32;34530;-69
2022/05/30 05:48:25;;;;;;;5.28;2.87;;;;;;;16.57;61.16;98772.19;4393009;32;34396;-76
2022/05/30 05:50:53;;;;;;;4.18;2.28;;;;;;;16.55;59.42;98771.41;4394577;32;34032;-70
2022/05/30 05:53:21;;;;;;;3.97;2.60;;;;;;;17.12;60.01;98772.38;4379186;32;35306;-70
2022/05/30 05:55:49;;;;;;;4.70;2.53;;;;;;;17.29;58.18;98783.88;4380311;32;34232;-69
2022/05/30 05:58:18;;;;;;;6.57;2.62;;;;;;;17.21;58.49;98779.81;4393790;32;33451;-69
2022/05/30 06:00:45;;;;;;;5.40;2.55;;;;;;;17.10;58.52;98782.13;4394459;32;33796;-71
2022/05/30 06:03:14;;;;;;;5.72;2.58;;;;;;;17.62;58.11;98786.66;4392726;32;34986;-81
2022/05/30 06:05:44;;;;;;;3.33;2.50;;;;;;;17.46;56.84;98783.94;4379657;32;33680;-70
2022/05/30 06:08:12;;;;;;;4.07;2.53;;;;;;;17.54;58.68;98792.31;4379235;32;34482;-80
2022/05/30 06:13:30;;;;;;;3.30;2.30;;;;;;;17.69;58.72;98787.22;4393385;32;35788;-70
2022/05/30 06:15:59;;;;;;;3.78;2.42;;;;;;;18.50;53.99;98782.31;4394080;32;34465;-69
2022/05/30 06:18:30;;;;;;;7.15;2.58;;;;;;;18.51;55.74;98789.28;4392349;32;33120;-71
2022/05/30 06:20:59;;;;;;;7.25;2.22;;;;;;;19.20;52.99;98779.47;4379819;32;32457;-77
2022/05/30 06:23:29;;;;;;;3.42;2.50;;;;;;;18.91;53.27;98789.84;4393401;32;35057;-70
2022/05/30 06:26:01;;;;;;;4.53;3.00;;;;;;;19.12;51.89;98798.38;4379555;32;32964;-77
2022/05/30 06:28:30;;;;;;;6.43;3.33;;;;;;;19.68;51.62;98801.44;4379957;32;33609;-70
2022/05/30 06:31:22;;;;;;;3.85;2.65;;;;;;;20.01;52.52;98798.69;4379157;32;33140;-70
2022/05/30 06:33:50;;;;;;;6.85;3.22;;;;;;;20.31;49.66;98804.87;4379745;32;35236;-70
2022/05/30 06:36:21;;;;;;;4.65;2.50;;;;;;;20.35;49.58;98801.16;4380879;32;35255;-70
2022/05/30 06:38:51;;;;;;;4.95;2.60;;;;;;;19.58;51.22;98808.19;4379817;32;32596;-70
2022/05/30 06:41:22;;;;;;;4.93;2.45;;;;;;;19.17;51.84;98812.19;4393896;32;33935;-70
2022/05/30 06:43:56;;;;;;;3.90;2.20;;;;;;;19.79;49.59;98814.91;4378570;32;34537;-70
2022/05/30 06:46:41;;;;;;;7.90;3.10;;;;;;;18.32;54.59;98813.97;4393373;32;35287;-69
2022/05/30 06:49:13;;;;;;;8.40;3.12;;;;;;;18.60;54.91;98806.41;4380453;32;33155;-70
2022/05/30 06:51:42;;;;;;;17.90;5.72;;;;;;;18.92;55.26;98818.78;4393154;32;34706;-70
2022/05/30 06:54:10;;;;;;;5.03;2.50;;;;;;;18.91;52.19;98817.06;4393863;32;35072;-82
2022/05/30 06:58:11;;;;;;;5.75;2.60;;;;;;;19.67;51.24;98815.59;4393773;32;35178;-70
2022/05/30 06:59:32;;;;;;;7.95;2.50;;;;;;;19.08;53.48;98815.31;4392572;32;33648;-80
2022/05/30 07:02:02;;;;;;;4.30;1.85;;;;;;;19.14;50.48;98820.25;4393084;32;34264;-82
2022/05/30 07:04:35;;;;;;;5.37;2.00;;;;;;;19.25;47.26;98824.94;4380312;32;36322;-70
2022/05/30 07:07:08;;;;;;;6.80;2.05;;;;;;;19.56;46.59;98818.00;4381271;32;34459;-70
2022/05/30 07:09:37;;;;;;;3.67;1.60;;;;;;;20.20;46.68;98819.59;4379341;32;33450;-71
2022/05/30 07:12:08;;;;;;;4.37;1.62;;;;;;;20.56;44.36;98815.72;4392937;32;34019;-70
2022/05/30 07:14:38;;;;;;;3.17;2.10;;;;;;;19.30;47.28;98813.19;4379393;32;35196;-70
2022/05/30 07:17:10;;;;;;;4.32;1.70;;;;;;;19.06;48.69;98818.03;4392029;32;35342;-71
2022/05/30 07:19:38;;;;;;;5.47;1.73;;;;;;;19.36;45.99;98822.59;4390862;32;34330;-71
2022/05/30 07:22:07;;;;;;;4.65;1.95;;;;;;;19.89;45.30;98820.53;4380075;32;34092;-78
2022/05/30 07:24:38;;;;;;;3.58;1.70;;;;;;;19.41;47.92;98815.28;4392094;32;33726;-79
2022/05/30 07:27:17;;;;;;;6.22;1.80;;;;;;;19.40;49.42;98812.72;4393044;32;32809;-70
2022/05/30 07:29:56;;;;;;;3.35;2.30;;;;;;;20.32;45.52;98811.91;4379642;32;32898;-74
2022/05/30 07:32:33;;;;;;;4.82;2.00;;;;;;;19.95;46.10;98814.03;4379721;32;33408;-81
2022/05/30 07:35:16;;;;;;;3.67;2.00;;;;;;;20.26;46.22;98813.97;4387613;32;34936;-69
2022/05/30 07:37:50;;;;;;;5.00;2.30;;;;;;;21.44;43.71;98812.09;4380796;32;34517;-70
2022/05/30 07:40:19;;;;;;;2.47;1.60;;;;;;;20.99;47.17;98817.56;4379514;32;33453;-70
2022/05/30 07:42:50;;;;;;;3.65;2.80;;;;;;;20.53;44.21;98820.34;4379753;32;33381;-70
2022/05/30 07:45:18;;;;;;;5.12;1.80;;;;;;;20.69;43.63;98817.66;4392748;32;35190;-70
2022/05/30 07:47:49;;;;;;;7.40;1.92;;;;;;;20.97;42.89;98815.00;4381294;32;35307;-70
2022/05/30 07:50:18;;;;;;;5.43;2.55;;;;;;;20.57;43.45;98817.41;4387866;32;33847;-70
2022/05/30 07:52:49;;;;;;;4.07;2.03;;;;;;;20.12;43.49;98821.84;4379637;32;34720;-79
2022/05/30 07:55:18;;;;;;;2.72;1.70;;;;;;;20.87;43.11;98826.25;4392836;32;34948;-69
2022/05/30 07:57:53;;;;;;;3.12;1.95;;;;;;;20.74;43.56;98819.06;4379680;32;33303;-69
2022/05/30 08:00:23;;;;;;;4.20;1.80;;;;;;;20.48;43.89;98825.06;4392927;32;33428;-69
2022/05/30 08:02:52;;;;;;;4.50;2.08;;;;;;;20.22;44.59;98830.94;4391410;32;33836;-70
2022/05/30 08:05:22;;;;;;;3.70;2.10;;;;;;;20.55;44.95;98826.38;4379558;32;35121;-69
2022/05/30 08:07:55;;;;;;;5.50;2.05;;;;;;;20.63;42.70;98832.94;4393394;32;36741;-69
2022/05/30 08:10:27;;;;;;;2.72;1.87;;;;;;;19.95;45.06;98836.03;4391014;32;34270;-69
2022/05/30 08:12:55;;;;;;;2.50;1.70;;;;;;;20.26;43.24;98824.53;4391473;32;34107;-70
2022/05/30 08:15:24;;;;;;;6.20;2.00;;;;;;;20.81;42.31;98830.13;4392769;32;35770;-70
2022/05/30 08:17:55;;;;;;;3.60;2.05;;;;;;;20.81;43.89;98830.13;4392593;32;33558;-69
2022/05/30 08:20:29;;;;;;;3.50;1.60;;;;;;;21.08;44.63;98830.22;4379146;32;32666;-69
2022/05/30 08:22:57;;;;;;;3.33;1.90;;;;;;;21.44;44.42;98843.88;4391372;32;33705;-70
2022/05/30 08:25:26;;;;;;;2.90;1.60;;;;;;;21.67;43.72;98840.66;4392916;32;35157;-70
2022/05/30 08:27:54;;;;;;;5.87;1.73;;;;;;;21.70;42.51;98840.44;4379601;32;33727;-69
2022/05/30 08:30:23;;;;;;;3.40;1.60;;;;;;;22.62;40.83;98844.13;4392444;32;34133;-69
2022/05/30 08:32:52;;;;;;;4.78;1.85;;;;;;;22.60;41.90;98847.84;4393092;32;33854;-70
2022/05/30 08:35:27;;;;;;;3.75;1.48;;;;;;;23.55;36.07;98838.53;4387688;32;35091;-70
2022/05/30 08:37:59;;;;;;;2.20;1.73;;;;;;;22.57;39.84;98829.47;4393242;32;34401;-70
2022/05/30 08:43:35;;;;;;;3.33;1.42;;;;;;;22.62;39.84;98822.03;4393403;32;33936;-70
2022/05/30 08:46:11;;;;;;;3.78;1.77;;;;;;;22.56;39.33;98811.87;4378720;32;35040;-70
2022/05/30 08:49:01;;;;;;;2.25;1.33;;;;;;;21.78;39.31;98829.38;4393179;32;35261;-70
2022/05/30 08:51:47;;;;;;;3.00;1.60;;;;;;;21.43;42.03;98837.75;4392367;32;33425;-69
2022/05/30 08:54:30;;;;;;;3.72;1.67;;;;;;;20.89;40.37;98838.44;4392663;32;33872;-70
2022/05/30 08:57:03;;;;;;;5.60;1.60;;;;;;;21.49;40.35;98841.84;4392098;32;35711;-69
2022/05/30 09:00:04;;;;;;;3.40;1.70;;;;;;;21.93;40.22;98851.38;4379252;32;34584;-71
2022/05/30 09:02:52;;;;;;;3.92;1.70;;;;;;;22.01;40.86;98859.69;4380038;32;34123;-72
2022/05/30 09:05:23;;;;;;;;;;;;;;;21.75;38.68;98848.97;4379790;32;34034;-69
2022/05/30 09:08:21;;;;;;;2.72;1.60;;;;;;;22.32;39.83;98852.34;4391177;32;36197;-84
2022/05/30 09:11:02;;;;;;;3.20;1.70;;;;;;;21.50;42.78;98865.59;4390898;32;34524;-80
2022/05/30 09:13:41;;;;;;;4.95;1.92;;;;;;;22.34;36.85;98861.94;4366963;32;33586;-70
2022/05/30 09:16:44;;;;;;;2.00;1.55;;;;;;;21.13;40.71;98869.66;4390983;32;34101;-70
2022/05/30 09:19:16;;;;;;;2.53;1.45;;;;;;;22.20;39.60;98851.38;4390359;32;35662;-77
2022/05/30 09:21:45;;;;;;;2.37;1.37;;;;;;;21.24;42.31;98864.53;4366634;32;35231;-81
2022/05/30 09:24:15;;;;;;;3.08;1.90;;;;;;;21.12;42.19;98870.59;4392199;32;33432;-81
2022/05/30 09:26:44;;;;;;;4.50;1.70;;;;;;;21.78;36.88;98859.38;4393655;32;34841;-81
2022/05/30 09:29:30;;;;;;;4.30;1.50;;;;;;;21.63;40.22;98878.06;4392762;32;35080;-78
2022/05/30 09:32:15;;;;;;;2.72;1.52;;;;;;;21.14;40.60;98874.88;4378332;32;34237;-80
2022/05/30 09:34:49;;;;;;;2.80;1.55;;;;;;;21.66;39.75;98861.97;4381338;32;34437;-75
2022/05/30 09:37:29;;;;;;;2.65;1.70;;;;;;;22.11;39.00;98860.78;4380646;32;33490;-70
2022/05/30 09:39:58;;;;;;;3.33;1.65;;;;;;;22.17;38.79;98859.50;4366087;32;35274;-70
2022/05/30 09:42:33;;;;;;;2.22;1.50;;;;;;;21.87;39.85;98859.72;4393574;32;34482;-71
2022/05/30 09:45:15;;;;;;;2.00;1.55;;;;;;;21.16;40.69;98872.09;4392703;32;33405;-71
2022/05/30 09:48:19;;;;;;;2.92;1.60;;;;;;;20.92;42.53;98877.12;4394945;32;32513;-70
2022/05/30 09:50:53;;;;;;;2.90;1.37;;;;;;;21.73;40.14;98882.66;4356144;32;35143;-71
2022/05/30 09:53:41;;;;;;;2.87;1.65;;;;;;;21.25;41.13;98891.84;4380314;32;34413;-71
2022/05/30 09:56:11;;;;;;;2.50;1.55;;;;;;;21.33;41.15;98890.44;4393863;32;34263;-71
2022/05/30 09:58:49;;;;;;;2.67;2.00;;;;;;;21.37;41.90;98889.31;4394673;32;34743;-71
2022/05/30 10:01:24;;;;;;;3.78;1.70;;;;;;;21.51;39.50;98887.63;4367899;32;34459;-71
2022/05/30 10:03:59;;;;;;;3.42;1.58;;;;;;;21.44;42.00;98896.87;4381300;32;34540;-70
2022/05/30 10:06:30;;;;;;;3.80;1.65;;;;;;;22.37;39.84;98886.53;4393887;32;33466;-71
2022/05/30 10:09:12;;;;;;;5.40;2.03;;;;;;;21.86;41.73;98897.78;4393679;32;34782;-71
2022/05/30 10:11:42;;;;;;;6.05;1.83;;;;;;;22.18;40.24;98887.72;4391635;32;35111;-71
2022/05/30 10:14:25;;;;;;;2.37;1.70;;;;;;;21.95;39.14;98886.56;4394623;32;34600;-71
2022/05/30 10:16:57;;;;;;;1.98;1.48;;;;;;;21.58;39.94;98889.81;4376589;32;33513;-70
2022/05/30 10:19:31;;;;;;;2.55;1.40;;;;;;;22.47;38.07;98877.03;4365676;32;33837;-79
2022/05/30 10:28:39;;;;;;;4.87;1.47;;;;;;;21.47;42.47;98892.25;4382199;32;33583;-71
2022/05/30 10:31:18;;;;;;;3.37;1.33;;;;;;;22.45;41.08;98887.72;4393737;32;33928;-70
2022/05/30 10:34:06;;;;;;;2.60;1.50;;;;;;;22.61;38.84;98892.00;4380503;32;35997;-70
2022/05/30 10:36:46;;;;;;;3.47;1.40;;;;;;;21.40;42.03;98897.06;4393830;32;34647;-81
2022/05/30 10:39:42;;;;;;;2.33;1.40;;;;;;;21.57;39.02;98897.84;4394072;32;33396;-71
2022/05/30 10:42:11;;;;;;;2.08;1.50;;;;;;;20.89;39.80;98898.47;4382486;32;34778;-72
2022/05/30 10:44:43;;;;;;;4.32;2.15;;;;;;;20.55;40.65;98906.59;4366760;32;35741;-81
2022/05/30 10:47:18;;;;;;;4.07;1.48;;;;;;;20.47;41.77;98906.16;4383713;32;34472;-84
2022/05/30 10:50:42;;;;;;;2.20;1.23;;;;;;;21.02;41.61;98896.78;4392274;32;33542;-71
2022/05/30 10:53:26;;;;;;;2.30;1.60;;;;;;;20.62;43.67;98894.72;4360816;32;33921;-71
2022/05/30 10:56:02;;;;;;;2.75;1.70;;;;;;;20.87;39.73;98887.97;4393552;32;35113;-73
2022/05/30 10:58:55;;;;;;;4.32;2.53;;;;;;;21.15;41.76;98903.03;4390837;32;34321;-72
2022/05/30 11:01:47;;;;;;;3.25;1.92;;;;;;;21.15;41.25;98895.06;4391113;32;33552;-72
2022/05/30 11:04:52;;;;;;;2.55;1.60;;;;;;;21.68;41.80;98905.94;4390943;32;33933;-80
2022/05/30 11:07:20;;;;;;;2.37;1.50;;;;;;;21.39;42.21;98923.66;4386571;32;34972;-71
2022/05/30 11:10:05;;;;;;;6.47;1.77;;;;;;;22.07;39.92;98922.91;4393598;32;34414;-71
2022/05/30 11:12:38;;;;;;;3.78;1.60;;;;;;;22.30;37.38;98929.38;4391121;32;34340;-84
2022/05/30 11:15:12;;;;;;;3.75;1.50;;;;;;;21.48;42.64;98930.22;4366446;32;32971;-77
2022/05/30 11:18:03;;;;;;;2.33;1.58;;;;;;;21.39;38.66;98928.97;4374896;32;34527;-71
2022/05/30 11:20:55;;;;;;;2.40;1.58;;;;;;;21.39;40.77;98932.44;4379538;32;34394;-71
2022/05/30 11:23:23;;;;;;;2.28;1.40;;;;;;;20.96;40.02;98932.41;4393854;32;33202;-71
2022/05/30 11:26:03;;;;;;;4.25;1.83;;;;;;;21.31;39.83;98945.31;4393011;32;34071;-74
2022/05/30 11:28:43;;;;;;;7.28;1.62;;;;;;;21.61;40.02;98949.69;4393858;32;35342;-71
2022/05/30 11:31:21;;;;;;;3.45;1.83;;;;;;;20.72;40.22;98925.94;4392158;32;34511;-71
2022/05/30 11:34:08;;;;;;;3.42;1.77;;;;;;;20.74;40.22;98926.72;4375183;32;171640;-71
2022/05/30 11:37:11;;;;;;;2.83;1.40;;;;;;;20.62;41.80;98926.47;4379646;32;33658;-71
2022/05/30 11:39:51;;;;;;;2.53;1.45;;;;;;;20.74;39.96;98919.63;4393630;32;35065;-71
2022/05/30 11:42:29;;;;;;;2.83;1.50;;;;;;;20.46;41.25;98929.13;4393251;32;35088;-71
2022/05/30 11:44:59;;;;;;;3.62;1.40;;;;;;;20.61;40.64;98915.94;4379253;32;33399;-71
2022/05/30 11:47:32;;;;;;;3.17;1.42;;;;;;;20.99;39.62;98920.78;4379909;32;33236;-71
2022/05/30 11:50:30;;;;;;;2.45;1.60;;;;;;;20.81;40.61;98926.25;4366787;32;34047;-71
2022/05/30 11:53:41;;;;;;;2.55;1.45;;;;;;;20.90;40.12;98919.56;4380040;32;33920;-71
2022/05/30 11:56:27;;;;;;;2.10;1.33;;;;;;;21.50;38.19;98921.22;4333620;33;33408;-70
2022/05/30 11:59:34;;;;;;;3.20;1.33;;;;;;;21.20;39.21;98923.94;4379069;32;33836;-71
2022/05/30 12:02:05;;;;;;;3.03;1.50;;;;;;;20.79;40.12;98922.00;4371272;32;35988;-71
2022/05/30 12:05:05;;;;;;;6.15;1.50;;;;;;;21.45;39.22;98927.72;4392550;32;34396;-70
2022/05/30 12:07:52;;;;;;;4.25;1.83;;;;;;;22.11;37.73;98918.25;4377488;32;33429;-71
2022/05/30 12:10:26;;;;;;;2.58;1.90;;;;;;;20.80;41.90;98913.09;4367457;32;34880;-71
2022/05/30 12:13:06;;;;;;;4.70;1.62;;;;;;;20.87;39.96;98917.06;4379122;32;35053;-71
2022/05/30 12:16:05;;;;;;;4.15;1.52;;;;;;;20.40;40.55;98915.41;4392710;32;35104;-72
2022/05/30 12:24:34;;;;;;;3.17;1.58;;;;;;;20.16;42.13;98929.09;4393397;32;34949;-71
2022/05/30 12:27:40;;;;;;;2.50;1.50;;;;;;;20.00;41.23;98926.47;4391629;32;34324;-71
2022/05/30 12:30:34;;;;;;;2.62;1.73;;;;;;;19.46;41.29;98917.97;4344000;33;33338;-85